Terminal Aerodrome Forecast
Issued by NWS Melbourne, FL

Home | Current Version | Previous Version | Text Only | Print | Product List | Glossary On
Versions: 1 2 3 4 5 6 7 8 9 10 11 12 13
417
FTUS42 KMLB 101722
TAFMLB
TAF
KMLB 101722Z 1018/1118 28014G22KT P6SM FEW060 FEW250
     FM110100 28008KT P6SM SKC
     FM111200 31006KT P6SM SKC=

USA.gov is the U.S. government's official web portal to all federal, state and local government web resources and services.